Time;durP1;ratioP1;P1;durP2;ratioP2;P2;SDS_P1;SDS_P2;PMS_P1;PMS_P2;Temp;Humidity;BMP_temperature;BMP_pressure;BME280_temperature;BME280_humidity;BME280_pressure;Samples;Min_cycle;Max_cycle;Signal;HPM_P1;HPM_P2
2022/01/08 00:00:29;;;;;;;24.02;10.80;;;-1.30;69.40;;;;;;5056424;28;20108;-38
2022/01/08 00:02:54;;;;;;;25.63;10.80;;;-1.30;69.30;;;;;;5056318;28;20025;-38
2022/01/08 00:05:21;;;;;;;27.70;10.57;;;-1.30;69.30;;;;;;5056313;28;20040;-39
2022/01/08 00:07:47;;;;;;;24.52;10.75;;;-1.30;69.40;;;;;;5056206;28;20021;-39
2022/01/08 00:10:13;;;;;;;25.25;10.32;;;-1.30;69.40;;;;;;5056161;28;20029;-38
2022/01/08 00:12:39;;;;;;;32.22;12.23;;;-1.30;69.40;;;;;;5056061;28;20032;-39
2022/01/08 00:15:06;;;;;;;25.63;11.20;;;-1.30;69.40;;;;;;5056172;28;20033;-38
2022/01/08 00:17:33;;;;;;;26.95;10.52;;;-1.30;69.40;;;;;;5056116;28;20036;-38
2022/01/08 00:19:58;;;;;;;30.25;11.10;;;-1.40;69.30;;;;;;5055960;28;20045;-38
2022/01/08 00:22:24;;;;;;;30.65;12.23;;;-1.40;69.20;;;;;;5055914;28;20025;-39
2022/01/08 00:24:52;;;;;;;28.88;12.38;;;-1.40;69.20;;;;;;5055009;28;20083;-39
2022/01/08 00:27:19;;;;;;;37.50;13.35;;;-1.40;69.30;;;;;;5056192;28;20033;-39
2022/01/08 00:29:45;;;;;;;28.90;12.15;;;-1.50;69.30;;;;;;5055909;28;20033;-38
2022/01/08 00:32:11;;;;;;;33.10;13.15;;;-1.50;69.50;;;;;;5055938;28;20106;-38
2022/01/08 00:34:37;;;;;;;32.40;11.93;;;-1.50;69.60;;;;;;5055762;28;20402;-38
2022/01/08 00:37:02;;;;;;;30.13;12.15;;;-1.50;69.70;;;;;;5055782;28;20025;-39
2022/01/08 00:39:28;;;;;;;24.95;11.38;;;-1.50;69.80;;;;;;5055707;28;20091;-39
2022/01/08 00:41:54;;;;;;;29.55;12.73;;;-1.60;69.90;;;;;;5056009;28;20368;-38
2022/01/08 00:44:19;;;;;;;30.88;13.55;;;-1.60;69.90;;;;;;5055577;28;20056;-39
2022/01/08 00:46:45;;;;;;;29.75;11.70;;;-1.50;70.10;;;;;;5055643;28;20115;-38
2022/01/08 00:49:11;;;;;;;30.67;12.65;;;-1.60;70.00;;;;;;5055465;28;20061;-38
2022/01/08 00:51:36;;;;;;;32.85;13.23;;;-1.60;70.10;;;;;;5055845;28;20032;-38
2022/01/08 00:54:02;;;;;;;27.55;12.00;;;-1.60;70.10;;;;;;5055616;28;20375;-39
2022/01/08 00:56:28;;;;;;;26.80;12.48;;;-1.50;70.30;;;;;;5055718;28;20033;-39
2022/01/08 00:58:53;;;;;;;30.48;12.73;;;-1.60;70.20;;;;;;5055777;28;20124;-39
2022/01/08 01:01:19;;;;;;;28.48;12.25;;;-1.60;70.20;;;;;;5055502;28;20376;-39
2022/01/08 01:03:45;;;;;;;30.50;12.15;;;-1.60;70.30;;;;;;5055912;28;20302;-39
2022/01/08 01:06:10;;;;;;;30.40;12.95;;;-1.60;70.30;;;;;;5055182;28;20328;-38
2022/01/08 01:08:36;;;;;;;31.60;12.75;;;-1.60;70.30;;;;;;5054448;28;20029;-38
2022/01/08 01:11:02;;;;;;;32.65;12.57;;;-1.60;70.40;;;;;;5055128;28;20033;-38
2022/01/08 01:13:28;;;;;;;33.28;12.95;;;-1.60;70.40;;;;;;5055441;28;20041;-38
2022/01/08 01:15:53;;;;;;;29.58;11.73;;;-1.60;70.50;;;;;;5055241;28;20025;-39
2022/01/08 01:18:19;;;;;;;25.38;10.73;;;-1.60;70.50;;;;;;5055398;28;20025;-39
2022/01/08 01:20:45;;;;;;;26.80;11.35;;;-1.60;70.50;;;;;;5055424;28;20417;-38
2022/01/08 01:23:18;;;;;;;29.75;11.35;;;-1.60;70.50;;;;;;5055434;28;20040;-38
2022/01/08 01:25:52;;;;;;;25.67;10.57;;;-1.60;70.60;;;;;;5055399;28;20045;-38
2022/01/08 01:41:39;;;;;;;27.20;11.57;;;-1.70;70.70;;;;;;5058906;28;20055;-38
2022/01/08 01:49:19;;;;;;;19.95;9.02;;;-1.70;71.00;;;;;;5058314;28;20059;-38
2022/01/08 01:51:45;;;;;;;23.92;8.88;;;-1.70;70.90;;;;;;5058929;28;20037;-39
2022/01/08 01:54:12;;;;;;;20.55;9.27;;;-1.70;71.10;;;;;;5058266;28;20068;-38
2022/01/08 01:56:38;;;;;;;17.85;7.05;;;-1.70;71.10;;;;;;5058537;28;20040;-38
2022/01/08 01:59:04;;;;;;;23.58;7.88;;;-1.70;71.10;;;;;;5058449;28;20120;-39
2022/01/08 02:01:30;;;;;;;19.02;7.93;;;-1.70;71.10;;;;;;5058320;28;20104;-39
2022/01/08 02:03:55;;;;;;;17.42;8.35;;;-1.80;71.00;;;;;;5058617;28;20120;-39
2022/01/08 02:06:21;;;;;;;20.33;8.80;;;-1.80;71.10;;;;;;5058456;28;20037;-38
2022/01/08 02:08:47;;;;;;;24.70;9.27;;;-1.70;71.20;;;;;;5058449;28;20060;-39
2022/01/08 02:11:13;;;;;;;21.85;10.18;;;-1.80;71.10;;;;;;5058018;28;20035;-39
2022/01/08 02:13:38;;;;;;;23.15;9.63;;;-1.80;71.10;;;;;;5058500;28;20075;-39
2022/01/08 02:16:06;;;;;;;28.13;12.60;;;-1.80;71.20;;;;;;5058107;28;20033;-39
2022/01/08 02:18:33;;;;;;;23.95;9.93;;;-1.80;71.30;;;;;;5058308;28;20025;-38
2022/01/08 02:21:00;;;;;;;25.15;10.32;;;-1.90;71.30;;;;;;5058150;28;20059;-39
2022/01/08 02:23:27;;;;;;;21.73;9.32;;;-1.90;71.30;;;;;;5057982;28;20037;-39
2022/01/08 02:26:05;;;;;;;21.90;9.70;;;-2.00;71.20;;;;;;5058019;28;20066;-39
2022/01/08 02:28:31;;;;;;;20.23;9.77;;;-2.00;71.40;;;;;;5058364;28;20036;-39
2022/01/08 02:30:57;;;;;;;25.98;9.35;;;-2.00;71.70;;;;;;5057954;28;20043;-38
2022/01/08 02:33:26;;;;;;;20.63;8.60;;;-2.10;71.80;;;;;;5057697;28;20413;-39
2022/01/08 02:35:52;;;;;;;20.73;10.57;;;-2.10;72.00;;;;;;5057577;28;20448;-39
2022/01/08 02:38:18;;;;;;;23.48;10.75;;;-2.10;72.10;;;;;;5057933;28;20041;-39
2022/01/08 02:40:52;;;;;;;23.27;10.38;;;-2.10;72.10;;;;;;5057613;28;20051;-38
2022/01/08 02:43:17;;;;;;;23.17;10.43;;;-2.10;72.30;;;;;;5058054;28;20092;-38
2022/01/08 02:45:43;;;;;;;26.73;11.15;;;-2.10;72.30;;;;;;5057688;28;20131;-38
2022/01/08 02:48:09;;;;;;;24.88;11.23;;;-2.10;72.40;;;;;;5057073;28;20375;-38
2022/01/08 02:50:35;;;;;;;22.30;10.85;;;-2.10;72.50;;;;;;5057212;28;20053;-39
2022/01/08 02:53:00;;;;;;;25.15;11.52;;;-2.10;72.50;;;;;;5057501;28;20428;-38
2022/01/08 02:55:26;;;;;;;22.13;10.80;;;-2.10;72.60;;;;;;5057805;28;20044;-38
2022/01/08 02:57:51;;;;;;;21.88;10.95;;;-2.10;72.80;;;;;;5057479;28;20036;-38
2022/01/08 03:00:19;;;;;;;22.55;11.95;;;-2.10;72.90;;;;;;5057440;28;20044;-38
2022/01/08 03:02:48;;;;;;;20.45;11.50;;;-2.10;72.90;;;;;;5057433;28;20087;-39
2022/01/08 03:05:14;;;;;;;21.45;11.30;;;-2.10;72.80;;;;;;5057462;28;20082;-39
2022/01/08 03:07:42;;;;;;;22.63;10.15;;;-2.10;72.90;;;;;;5057310;28;20357;-38
2022/01/08 03:10:10;;;;;;;22.02;11.32;;;-2.10;72.90;;;;;;5057198;28;20041;-39
2022/01/08 03:12:43;;;;;;;21.17;10.57;;;-2.00;73.00;;;;;;5057582;28;20036;-39
2022/01/08 03:15:18;;;;;;;25.80;11.50;;;-2.00;73.00;;;;;;5057143;28;20166;-38
2022/01/08 03:17:44;;;;;;;21.33;10.77;;;-2.10;73.00;;;;;;5057275;28;20103;-38
2022/01/08 03:20:13;;;;;;;18.23;9.88;;;-2.00;72.90;;;;;;5057063;28;20413;-39
2022/01/08 03:22:41;;;;;;;20.98;10.80;;;-2.00;72.90;;;;;;5057092;28;20417;-39
2022/01/08 03:25:07;;;;;;;22.58;10.82;;;-2.00;72.90;;;;;;5056510;28;20072;-39
2022/01/08 03:27:33;;;;;;;23.75;12.32;;;-2.00;72.80;;;;;;5057140;28;20029;-38
2022/01/08 03:30:00;;;;;;;22.40;11.05;;;-2.00;72.80;;;;;;5056556;28;20040;-39
2022/01/08 03:32:26;;;;;;;19.48;11.00;;;-2.00;72.90;;;;;;5056911;28;20321;-38
2022/01/08 03:34:52;;;;;;;23.48;10.75;;;-2.00;72.90;;;;;;5056749;28;20041;-38
2022/01/08 03:37:18;;;;;;;23.17;11.38;;;-2.00;72.80;;;;;;5056722;28;20421;-39
2022/01/08 03:39:44;;;;;;;27.65;12.52;;;-2.00;72.80;;;;;;5056704;28;20033;-38
2022/01/08 03:42:10;;;;;;;22.80;10.82;;;-2.10;72.80;;;;;;5056532;28;20033;-39
2022/01/08 03:44:36;;;;;;;25.33;12.55;;;-2.10;72.70;;;;;;5056437;28;20124;-38
2022/01/08 03:49:59;;;;;;;22.70;11.90;;;-2.10;72.70;;;;;;5055371;28;20053;-39
2022/01/08 03:52:26;;;;;;;19.20;10.80;;;-2.10;72.70;;;;;;5056750;28;20032;-39
2022/01/08 03:54:52;;;;;;;22.80;11.27;;;-2.10;72.70;;;;;;5056143;28;20421;-39
2022/01/08 03:57:18;;;;;;;38.35;15.23;;;-2.20;72.60;;;;;;5056124;28;20044;-39
2022/01/08 03:59:44;;;;;;;42.70;16.17;;;-2.20;72.50;;;;;;5056095;28;20083;-38
2022/01/08 04:02:09;;;;;;;23.25;9.85;;;-2.20;72.50;;;;;;5056575;28;20112;-39
2022/01/08 04:04:35;;;;;;;21.38;10.23;;;-2.30;72.70;;;;;;5056189;28;20413;-38
2022/01/08 04:07:01;;;;;;;21.95;10.90;;;-2.30;72.90;;;;;;5056478;28;20033;-39
2022/01/08 04:09:26;;;;;;;28.60;11.68;;;-2.30;73.10;;;;;;5055888;28;20041;-38
2022/01/08 04:11:52;;;;;;;19.92;10.05;;;-2.30;73.20;;;;;;5056605;28;20036;-38
2022/01/08 04:14:19;;;;;;;18.92;9.20;;;-2.30;73.30;;;;;;5056053;28;20048;-38
2022/01/08 04:16:49;;;;;;;17.63;8.50;;;-2.30;73.30;;;;;;5056036;28;20036;-38
2022/01/08 04:19:16;;;;;;;14.10;7.80;;;-2.30;73.30;;;;;;5055789;28;20037;-38
2022/01/08 04:22:02;;;;;;;21.70;9.50;;;-2.30;73.40;;;;;;5056126;28;20035;-39
2022/01/08 04:24:28;;;;;;;17.08;8.55;;;-2.30;74.00;;;;;;5056033;28;20056;-39
2022/01/08 04:26:53;;;;;;;15.82;8.52;;;-2.30;73.40;;;;;;5054795;28;20033;-39
2022/01/08 04:29:19;;;;;;;20.33;9.13;;;-2.30;73.50;;;;;;5055916;28;20065;-39
2022/01/08 04:31:45;;;;;;;18.75;9.02;;;-2.30;73.60;;;;;;5055710;28;20158;-39
2022/01/08 04:34:10;;;;;;;17.80;8.75;;;-2.30;73.60;;;;;;5055776;28;20037;-38
2022/01/08 04:36:36;;;;;;;15.85;8.68;;;-2.30;73.60;;;;;;5055936;28;20037;-39
2022/01/08 04:39:02;;;;;;;23.65;7.80;;;-2.30;73.60;;;;;;5055912;28;20059;-38
2022/01/08 04:41:28;;;;;;;14.13;8.00;;;-2.30;73.60;;;;;;5055186;28;20044;-39
2022/01/08 04:43:53;;;;;;;14.95;8.48;;;-2.30;73.70;;;;;;5055668;28;20033;-38
2022/01/08 04:46:19;;;;;;;19.17;8.23;;;-2.30;73.80;;;;;;5055599;28;20029;-38
2022/01/08 04:48:44;;;;;;;19.52;10.48;;;-2.30;73.80;;;;;;5055400;28;20094;-38
2022/01/08 04:51:10;;;;;;;15.88;7.95;;;-2.30;73.90;;;;;;5055205;28;20047;-39
2022/01/08 04:53:36;;;;;;;16.85;8.80;;;-2.30;73.90;;;;;;5055607;28;20033;-38
2022/01/08 04:56:02;;;;;;;14.57;7.72;;;-2.30;73.90;;;;;;5055195;28;20044;-38
2022/01/08 04:58:28;;;;;;;15.88;6.93;;;-2.30;74.00;;;;;;5055806;28;20048;-39
2022/01/08 05:00:54;;;;;;;14.98;7.28;;;-2.30;74.00;;;;;;5055941;28;20029;-38
2022/01/08 05:03:20;;;;;;;12.00;6.93;;;-2.30;74.10;;;;;;5055506;28;20316;-39
2022/01/08 05:05:46;;;;;;;13.60;7.85;;;-2.30;74.10;;;;;;5055360;28;20100;-38
2022/01/08 05:08:12;;;;;;;16.40;8.82;;;-2.30;74.10;;;;;;5055333;28;20108;-39
2022/01/08 05:10:38;;;;;;;17.33;8.82;;;-2.30;74.70;;;;;;5057821;28;20409;-38
2022/01/08 05:13:05;;;;;;;15.35;6.88;;;-2.30;74.20;;;;;;5059246;28;20081;-39
2022/01/08 05:15:32;;;;;;;13.48;7.55;;;-2.30;74.20;;;;;;5059602;28;20036;-38
2022/01/08 05:17:58;;;;;;;15.85;7.25;;;-2.30;74.20;;;;;;5059499;28;20036;-39
2022/01/08 05:20:26;;;;;;;15.07;8.13;;;-2.30;74.30;;;;;;5059446;28;20470;-38
2022/01/08 05:22:53;;;;;;;14.57;7.60;;;-2.30;74.30;;;;;;5059508;28;20102;-39
2022/01/08 05:25:21;;;;;;;12.25;6.78;;;-2.30;74.20;;;;;;5059308;28;20039;-38
2022/01/08 05:27:48;;;;;;;14.02;7.53;;;-2.30;74.20;;;;;;5059411;28;20029;-39
2022/01/08 05:30:16;;;;;;;15.30;6.78;;;-2.30;74.10;;;;;;5059125;28;20364;-38
2022/01/08 05:32:43;;;;;;;14.52;7.47;;;-2.30;74.10;;;;;;5059187;28;20040;-38
2022/01/08 05:35:09;;;;;;;16.83;7.07;;;-2.30;74.20;;;;;;5058567;28;20025;-39
2022/01/08 05:37:35;;;;;;;13.90;6.70;;;-2.30;74.20;;;;;;5058804;28;20028;-39
2022/01/08 05:40:01;;;;;;;13.40;7.15;;;-2.30;74.30;;;;;;5058909;28;20025;-38
2022/01/08 05:42:26;;;;;;;12.85;6.63;;;-2.30;74.30;;;;;;5058969;28;20107;-39
2022/01/08 05:44:52;;;;;;;15.85;7.85;;;-2.30;74.40;;;;;;5058772;28;20029;-39
2022/01/08 05:47:20;;;;;;;21.05;9.10;;;-2.30;74.40;;;;;;5058586;28;20041;-39
2022/01/08 05:49:46;;;;;;;15.18;7.68;;;-2.30;74.40;;;;;;5058114;28;20061;-38
2022/01/08 05:52:12;;;;;;;14.25;7.47;;;-2.30;74.30;;;;;;5058489;28;20025;-39
2022/01/08 05:54:38;;;;;;;19.33;9.25;;;-2.20;74.30;;;;;;5058253;28;20041;-38
2022/01/08 05:57:04;;;;;;;13.95;7.50;;;-2.30;74.30;;;;;;5058654;28;20025;-39
2022/01/08 05:59:30;;;;;;;11.93;6.82;;;-2.20;74.30;;;;;;5057977;28;20037;-38
2022/01/08 06:01:57;;;;;;;15.90;6.70;;;-2.20;74.30;;;;;;5058262;28;20024;-39
2022/01/08 06:04:23;;;;;;;14.45;7.82;;;-2.20;74.30;;;;;;5058254;28;20039;-39
2022/01/08 06:06:48;;;;;;;18.13;7.93;;;-2.20;74.30;;;;;;5058362;28;20029;-39
2022/01/08 06:09:15;;;;;;;16.65;7.60;;;-2.30;74.20;;;;;;5058306;28;20348;-39
2022/01/08 06:11:40;;;;;;;15.93;7.60;;;-2.20;74.30;;;;;;5058268;28;20029;-38
2022/01/08 06:14:06;;;;;;;16.25;7.78;;;-2.20;74.30;;;;;;5057691;28;20056;-39
2022/01/08 06:16:37;;;;;;;15.40;7.13;;;-2.20;74.20;;;;;;5058404;28;20021;-38
2022/01/08 06:19:08;;;;;;;15.20;7.40;;;-2.20;74.30;;;;;;5058276;28;20044;-38
2022/01/08 06:21:35;;;;;;;16.60;8.13;;;-2.20;74.30;;;;;;5058115;28;20048;-38
2022/01/08 06:24:00;;;;;;;12.65;7.18;;;-2.20;74.30;;;;;;5056235;28;20033;-38
2022/01/08 06:26:27;;;;;;;13.68;7.30;;;-2.20;74.30;;;;;;5048474;28;20318;-39
2022/01/08 06:28:52;;;;;;;13.00;7.05;;;-2.20;74.30;;;;;;5038166;28;20030;-38
2022/01/08 06:31:19;;;;;;;14.90;7.40;;;-2.20;74.40;;;;;;5037662;28;20402;-38
2022/01/08 06:33:46;;;;;;;15.82;8.45;;;-2.20;74.40;;;;;;5038045;28;20101;-38
2022/01/08 06:36:12;;;;;;;17.73;7.70;;;-2.10;74.40;;;;;;5037377;28;20029;-38
2022/01/08 06:38:37;;;;;;;29.60;12.30;;;-2.10;74.40;;;;;;5037587;28;20030;-38
2022/01/08 06:41:03;;;;;;;21.65;8.18;;;-2.10;74.40;;;;;;5037412;28;20036;-38
2022/01/08 06:43:29;;;;;;;19.58;9.60;;;-2.10;74.60;;;;;;5037530;28;20322;-38
2022/01/08 06:45:55;;;;;;;30.90;15.85;;;-2.10;74.60;;;;;;5037692;28;20056;-37
2022/01/08 06:48:20;;;;;;;20.52;11.13;;;-2.10;74.70;;;;;;5037745;28;20029;-39
2022/01/08 06:50:46;;;;;;;15.25;7.85;;;-2.10;74.80;;;;;;5037111;28;20117;-37
2022/01/08 06:53:11;;;;;;;20.95;9.25;;;-2.00;74.90;;;;;;5037418;28;20025;-39
2022/01/08 06:55:37;;;;;;;20.27;10.57;;;-2.00;75.00;;;;;;5037405;28;20037;-37
2022/01/08 06:58:03;;;;;;;15.10;7.78;;;-2.00;75.00;;;;;;5036982;28;20025;-38
2022/01/08 07:00:29;;;;;;;16.25;8.82;;;-1.90;75.60;;;;;;5037396;28;20029;-38
2022/01/08 07:02:55;;;;;;;24.58;8.90;;;-1.90;75.10;;;;;;5037423;28;20026;-38
2022/01/08 07:05:20;;;;;;;19.55;9.13;;;-1.90;75.00;;;;;;5037434;28;20369;-37
2022/01/08 07:07:46;;;;;;;23.08;9.70;;;-1.80;75.00;;;;;;5037537;28;20309;-38
2022/01/08 07:10:12;;;;;;;13.32;6.53;;;-1.80;75.00;;;;;;5037057;28;20030;-37
2022/01/08 07:12:38;;;;;;;16.30;7.28;;;-1.70;75.00;;;;;;5037463;28;20033;-38
2022/01/08 07:15:05;;;;;;;12.85;6.65;;;-1.70;74.90;;;;;;5035543;28;20087;-37
2022/01/08 07:17:30;;;;;;;14.75;7.80;;;-1.60;75.00;;;;;;5037010;28;20032;-37
2022/01/08 07:19:56;;;;;;;14.48;6.40;;;-1.60;74.70;;;;;;5036387;28;20102;-38
2022/01/08 07:22:22;;;;;;;16.70;8.13;;;-1.50;74.60;;;;;;5037160;28;20075;-40
2022/01/08 07:24:47;;;;;;;10.82;5.35;;;-1.50;74.50;;;;;;5046295;28;20130;-39
2022/01/08 07:27:13;;;;;;;11.57;5.75;;;-1.40;74.30;;;;;;5056819;28;20033;-38
2022/01/08 07:29:39;;;;;;;16.05;8.57;;;-1.30;74.10;;;;;;5056550;28;20303;-39
2022/01/08 07:32:05;;;;;;;15.32;7.65;;;-1.20;74.00;;;;;;5056405;28;20021;-39
2022/01/08 07:34:31;;;;;;;14.48;7.45;;;-1.20;74.00;;;;;;5055511;28;20048;-37
2022/01/08 07:36:57;;;;;;;17.20;7.28;;;-1.10;73.30;;;;;;5053296;28;20025;-38
2022/01/08 07:39:22;;;;;;;11.75;6.65;;;-1.00;72.50;;;;;;5056336;28;20033;-38
2022/01/08 07:41:48;;;;;;;10.30;5.22;;;-0.90;72.50;;;;;;5056363;28;20021;-38
2022/01/08 07:44:14;;;;;;;14.85;7.32;;;-0.90;72.20;;;;;;5054551;28;20041;-39
2022/01/08 07:46:40;;;;;;;19.98;11.18;;;-0.80;72.40;;;;;;5056298;28;20309;-39
2022/01/08 07:49:05;;;;;;;23.02;12.75;;;-0.70;72.40;;;;;;5055989;28;20430;-38
2022/01/08 07:51:31;;;;;;;22.20;12.07;;;-0.60;72.00;;;;;;5056095;28;20041;-38
2022/01/08 07:53:57;;;;;;;21.00;13.27;;;-0.50;71.70;;;;;;5056038;28;20113;-38
2022/01/08 07:56:23;;;;;;;27.88;15.40;;;-0.40;71.40;;;;;;5055759;28;20037;-39
2022/01/08 07:58:48;;;;;;;41.33;17.90;;;-0.40;70.90;;;;;;5056064;28;20338;-38
2022/01/08 08:01:14;;;;;;;40.65;15.35;;;-0.30;70.00;;;;;;5054824;28;20159;-38
2022/01/08 08:03:40;;;;;;;32.22;15.60;;;-0.20;69.40;;;;;;5056018;28;20071;-39
2022/01/08 08:06:12;;;;;;;33.05;14.95;;;-0.20;68.90;;;;;;5055246;28;20033;-38
2022/01/08 08:08:38;;;;;;;31.75;15.50;;;-0.10;68.40;;;;;;5056236;28;20044;-38
2022/01/08 08:11:04;;;;;;;29.67;14.45;;;-0.10;67.80;;;;;;5055582;28;20029;-38
2022/01/08 08:13:29;;;;;;;24.45;11.48;;;0.00;67.50;;;;;;5055785;28;20128;-38
2022/01/08 08:15:55;;;;;;;23.73;13.48;;;0.00;67.10;;;;;;5055680;28;20083;-37
2022/01/08 08:18:20;;;;;;;24.75;11.10;;;0.00;67.00;;;;;;5055715;28;20025;-39
2022/01/08 08:20:46;;;;;;;26.83;12.73;;;0.10;67.40;;;;;;5055559;28;20029;-38
2022/01/08 08:23:12;;;;;;;20.88;11.32;;;0.10;67.10;;;;;;5055750;28;20463;-39
2022/01/08 08:25:38;;;;;;;21.98;12.90;;;0.20;66.80;;;;;;5056223;28;20119;-38
2022/01/08 08:28:05;;;;;;;20.20;10.88;;;0.20;67.00;;;;;;5055920;28;20075;-38
2022/01/08 08:30:33;;;;;;;19.73;10.20;;;0.20;66.80;;;;;;5055970;28;20047;-39
2022/01/08 08:32:58;;;;;;;22.13;10.40;;;0.30;66.40;;;;;;5056041;28;20033;-38
2022/01/08 08:35:24;;;;;;;16.65;7.13;;;0.40;66.20;;;;;;5055987;28;20082;-38
2022/01/08 08:37:50;;;;;;;11.00;6.10;;;0.40;64.90;;;;;;5056015;28;20029;-38
2022/01/08 08:40:16;;;;;;;12.55;7.07;;;0.50;64.80;;;;;;5054843;28;20079;-39
2022/01/08 08:42:42;;;;;;;9.85;5.88;;;0.50;64.60;;;;;;5055622;28;20098;-38
2022/01/08 08:45:09;;;;;;;12.10;6.13;;;0.60;64.30;;;;;;5057209;28;20071;-38
2022/01/08 08:47:35;;;;;;;19.60;7.70;;;0.70;64.40;;;;;;5060169;28;20118;-38
2022/01/08 08:50:03;;;;;;;10.60;4.97;;;0.70;63.30;;;;;;5059366;28;20460;-38
2022/01/08 08:52:28;;;;;;;16.63;6.78;;;0.90;63.80;;;;;;5059632;28;20397;-39
2022/01/08 08:54:54;;;;;;;9.25;5.20;;;0.90;62.00;;;;;;5059532;28;20033;-38
2022/01/08 08:57:21;;;;;;;15.02;7.53;;;1.00;61.90;;;;;;5059431;28;20025;-38
2022/01/08 08:59:46;;;;;;;10.07;4.60;;;1.10;62.40;;;;;;5059401;28;20025;-37
2022/01/08 09:02:12;;;;;;;9.90;4.50;;;1.20;61.40;;;;;;5059290;28;20021;-38
2022/01/08 09:04:40;;;;;;;13.75;5.00;;;1.20;61.30;;;;;;5059674;28;20337;-39
2022/01/08 09:07:05;;;;;;;10.82;5.60;;;1.30;61.10;;;;;;5059616;28;20087;-38
2022/01/08 09:09:31;;;;;;;8.23;4.45;;;1.30;61.50;;;;;;5059424;28;20352;-39
2022/01/08 09:11:57;;;;;;;9.40;4.75;;;1.40;61.30;;;;;;5059117;28;20353;-39
2022/01/08 09:14:23;;;;;;;21.45;5.00;;;1.50;61.40;;;;;;5058703;28;20040;-38
2022/01/08 09:16:51;;;;;;;12.50;5.75;;;1.50;60.60;;;;;;5056547;28;20021;-39
2022/01/08 09:19:18;;;;;;;18.75;5.85;;;1.50;60.50;;;;;;5058542;28;20129;-38
2022/01/08 09:21:44;;;;;;;10.80;5.70;;;1.60;60.20;;;;;;5059045;28;20418;-39
2022/01/08 09:24:11;;;;;;;10.65;6.03;;;1.60;60.30;;;;;;5058834;28;20166;-39
2022/01/08 09:26:37;;;;;;;12.02;5.70;;;1.60;60.70;;;;;;5059000;28;20057;-38
2022/01/08 09:29:03;;;;;;;16.60;6.97;;;1.70;60.80;;;;;;5059035;28;20346;-39
2022/01/08 09:31:28;;;;;;;15.70;6.43;;;1.70;60.80;;;;;;5058905;28;20025;-38
2022/01/08 09:33:54;;;;;;;20.05;8.75;;;1.70;60.80;;;;;;5059079;28;20032;-38
2022/01/08 09:36:20;;;;;;;12.40;7.07;;;1.70;61.10;;;;;;5058380;28;20401;-38
2022/01/08 09:38:46;;;;;;;16.23;7.07;;;1.80;60.80;;;;;;5058789;28;20032;-38
2022/01/08 09:41:12;;;;;;;12.70;6.80;;;1.80;60.60;;;;;;5058100;28;20345;-38
2022/01/08 09:43:38;;;;;;;14.25;4.82;;;1.80;60.40;;;;;;5058567;28;20032;-38
2022/01/08 09:46:04;;;;;;;9.05;5.18;;;1.90;59.60;;;;;;5058244;28;20025;-38
2022/01/08 09:48:30;;;;;;;11.48;5.55;;;1.90;59.50;;;;;;5058671;28;20029;-38
2022/01/08 09:50:56;;;;;;;11.35;5.20;;;2.00;59.10;;;;;;5058514;28;20150;-39
2022/01/08 09:53:22;;;;;;;8.13;4.50;;;2.00;58.80;;;;;;5058485;28;20444;-39
2022/01/08 09:55:48;;;;;;;9.15;4.75;;;2.00;57.80;;;;;;5057762;28;20329;-39
2022/01/08 09:58:14;;;;;;;9.30;4.90;;;2.00;57.20;;;;;;5058300;28;20021;-38
2022/01/08 10:00:39;;;;;;;11.75;5.95;;;2.10;56.90;;;;;;5058401;28;20080;-38
2022/01/08 10:03:22;;;;;;;17.45;9.48;;;2.10;56.90;;;;;;5058332;28;20048;-39
2022/01/08 10:05:55;;;;;;;26.73;12.30;;;2.10;56.10;;;;;;5058154;28;20116;-38
2022/01/08 10:08:28;;;;;;;29.17;14.50;;;2.10;56.50;;;;;;5057892;28;20420;-39
2022/01/08 10:10:58;;;;;;;36.60;17.30;;;2.10;56.30;;;;;;5057887;28;20021;-39
2022/01/08 10:13:32;;;;;;;36.97;17.38;;;2.10;55.90;;;;;;5058343;28;20032;-38
2022/01/08 10:18:43;;;;;;;30.58;15.15;;;2.10;55.90;;;;;;5057141;28;20120;-38
2022/01/08 10:21:21;;;;;;;26.55;14.00;;;2.20;56.20;;;;;;5057636;28;20255;-38
2022/01/08 10:23:56;;;;;;;26.95;13.55;;;2.20;55.50;;;;;;5058100;28;20520;-38
2022/01/08 10:26:31;;;;;;;26.25;12.57;;;2.20;55.50;;;;;;5057978;28;20037;-38
2022/01/08 10:29:21;;;;;;;20.45;11.02;;;2.30;55.20;;;;;;5057915;28;20099;-38
2022/01/08 10:31:51;;;;;;;25.00;11.95;;;2.30;55.10;;;;;;5057743;28;20079;-38
2022/01/08 10:34:23;;;;;;;32.15;13.50;;;2.30;54.80;;;;;;5057774;28;20045;-38
2022/01/08 10:36:55;;;;;;;27.00;12.68;;;2.20;54.90;;;;;;5057769;28;20352;-38
2022/01/08 10:39:32;;;;;;;24.85;12.27;;;2.20;55.30;;;;;;5057605;28;20121;-38
2022/01/08 10:42:13;;;;;;;28.40;12.68;;;2.30;55.20;;;;;;5053517;28;20071;-38
2022/01/08 10:44:40;;;;;;;21.08;12.18;;;2.30;55.20;;;;;;5057265;28;20095;-38
2022/01/08 10:47:16;;;;;;;31.65;15.02;;;2.30;55.10;;;;;;5056743;28;20036;-38
2022/01/08 10:50:02;;;;;;;26.52;13.13;;;2.30;55.20;;;;;;5056916;28;20057;-38
2022/01/08 10:52:39;;;;;;;31.33;13.38;;;2.40;55.10;;;;;;5057144;28;20025;-39
2022/01/08 10:55:06;;;;;;;23.23;11.63;;;2.40;55.20;;;;;;5057006;28;20048;-38
2022/01/08 10:57:34;;;;;;;24.85;12.43;;;2.40;55.00;;;;;;5057054;28;20402;-38
2022/01/08 11:00:00;;;;;;;29.35;12.43;;;2.40;54.60;;;;;;5056912;28;20033;-37
2022/01/08 11:02:28;;;;;;;22.88;11.65;;;2.40;55.20;;;;;;5057155;28;20432;-38
2022/01/08 11:04:55;;;;;;;28.70;11.57;;;2.40;55.20;;;;;;5057117;28;20063;-38
2022/01/08 11:07:23;;;;;;;24.05;10.38;;;2.40;55.60;;;;;;5056168;28;20306;-39
2022/01/08 11:09:54;;;;;;;19.92;9.40;;;2.50;55.80;;;;;;5056535;28;20094;-39
2022/01/08 11:12:25;;;;;;;15.52;7.90;;;2.60;55.00;;;;;;5056787;28;20070;-38
2022/01/08 11:17:38;;;;;;;14.38;7.00;;;2.70;54.80;;;;;;5056908;28;19913;-38
2022/01/08 11:20:10;;;;;;;18.95;7.60;;;2.70;54.00;;;;;;5056832;28;20354;-38
2022/01/08 11:22:41;;;;;;;20.33;8.80;;;2.70;54.20;;;;;;5056503;28;20095;-39
2022/01/08 11:25:07;;;;;;;23.42;9.95;;;2.70;54.40;;;;;;5056177;28;20232;-39
2022/01/08 11:28:09;;;;;;;20.85;9.38;;;2.70;54.60;;;;;;5056198;28;20051;-39
2022/01/08 11:30:38;;;;;;;17.23;8.10;;;2.80;54.60;;;;;;5056615;28;20037;-38
2022/01/08 11:33:31;;;;;;;17.42;8.40;;;2.80;54.40;;;;;;5055995;28;20460;-38
2022/01/08 11:35:57;;;;;;;17.27;8.00;;;2.80;54.40;;;;;;5055860;28;20330;-39
2022/01/08 11:38:26;;;;;;;15.47;8.87;;;2.90;54.10;;;;;;5056258;28;20045;-38
2022/01/08 11:40:55;;;;;;;19.40;9.35;;;2.90;54.00;;;;;;5055985;28;20029;-39
2022/01/08 11:43:23;;;;;;;22.90;9.57;;;2.90;54.20;;;;;;5056376;28;20328;-38
2022/01/08 11:45:53;;;;;;;18.40;8.90;;;2.90;54.20;;;;;;5055955;28;20313;-38
2022/01/08 11:48:22;;;;;;;17.75;9.80;;;2.80;54.10;;;;;;5055912;28;20096;-38
2022/01/08 11:50:53;;;;;;;18.13;9.27;;;2.80;54.20;;;;;;5054879;28;20124;-38
2022/01/08 11:53:23;;;;;;;;;;;2.80;54.40;;;;;;5056457;28;20072;-38
2022/01/08 11:55:53;;;;;;;19.90;9.88;;;2.80;54.10;;;;;;5055582;28;19905;-38
2022/01/08 11:58:26;;;;;;;19.33;10.00;;;2.80;54.70;;;;;;5056082;28;20135;-39
2022/01/08 12:01:00;;;;;;;18.13;10.13;;;2.80;54.60;;;;;;5055437;28;20475;-38
2022/01/08 12:03:30;;;;;;;17.30;9.50;;;2.80;54.50;;;;;;5055822;28;20314;-38
2022/01/08 12:05:56;;;;;;;21.27;10.07;;;2.90;54.80;;;;;;5055251;28;20044;-38
2022/01/08 12:08:50;;;;;;;20.88;9.18;;;2.90;54.40;;;;;;5055704;28;20025;-39
2022/01/08 12:11:15;;;;;;;29.73;15.75;;;2.90;54.10;;;;;;5039759;28;20029;-39
2022/01/08 12:13:49;;;;;;;18.15;9.77;;;2.80;54.60;;;;;;5035737;28;20037;-39
2022/01/08 12:16:35;;;;;;;27.25;11.68;;;2.80;54.20;;;;;;5035575;28;20029;-39
2022/01/08 12:19:02;;;;;;;26.63;12.50;;;2.80;54.60;;;;;;5038680;28;20033;-39
2022/01/08 12:21:36;;;;;;;26.55;11.63;;;2.70;54.50;;;;;;5055124;28;20363;-38
2022/01/08 12:24:26;;;;;;;19.08;9.40;;;2.70;54.50;;;;;;5055791;28;20370;-40
2022/01/08 12:26:59;;;;;;;20.25;9.77;;;2.60;54.60;;;;;;5055355;28;20282;-38
2022/01/08 12:29:32;;;;;;;25.27;9.52;;;2.60;54.80;;;;;;5055334;28;20416;-40
2022/01/08 12:32:47;;;;;;;41.05;12.45;;;2.50;54.90;;;;;;5056023;28;20032;-39
2022/01/08 12:35:19;;;;;;;21.13;10.77;;;2.50;55.20;;;;;;5054850;28;20037;-39
2022/01/08 12:37:59;;;;;;;19.00;9.05;;;2.40;55.20;;;;;;5055215;28;20116;-44
2022/01/08 12:40:34;;;;;;;22.88;10.25;;;2.40;55.20;;;;;;5055369;28;20067;-38
2022/01/08 12:43:28;;;;;;;21.73;11.32;;;2.40;55.30;;;;;;5055155;28;20021;-38
2022/01/08 12:46:12;;;;;;;19.25;8.77;;;2.40;55.30;;;;;;5054850;28;20044;-38
2022/01/08 12:48:38;;;;;;;20.73;9.43;;;2.40;55.40;;;;;;5055338;28;20041;-39
2022/01/08 12:51:05;;;;;;;22.10;11.48;;;2.40;55.50;;;;;;5054718;28;20302;-38
2022/01/08 12:53:32;;;;;;;21.75;9.48;;;2.40;55.60;;;;;;5053948;28;20028;-38
2022/01/08 12:55:58;;;;;;;19.65;9.32;;;2.40;55.70;;;;;;5054759;28;20141;-38
2022/01/08 12:58:32;;;;;;;21.20;11.20;;;2.40;55.50;;;;;;5054887;28;20013;-38
2022/01/08 13:01:03;;;;;;;28.30;14.75;;;2.40;55.50;;;;;;5054942;28;20029;-39
2022/01/08 13:03:43;;;;;;;22.27;10.15;;;2.40;56.20;;;;;;5054979;28;20021;-39
2022/01/08 13:06:12;;;;;;;18.98;9.57;;;2.50;55.60;;;;;;5053432;28;20064;-39